Time;durP1;ratioP1;P1;durP2;ratioP2;P2;SDS_P1;SDS_P2;PMS_P1;PMS_P2;Temp;Humidity;BMP_temperature;BMP_pressure;BME280_temperature;BME280_humidity;BME280_pressure;Samples;Min_cycle;Max_cycle;Signal;HPM_P1;HPM_P2
2023/10/19 00:00:21;;;;;;;7.40;4.03;;;11.70;99.90;;;11.77;100.00;98954.22;5201513;28;20054;-48
2023/10/19 00:02:56;;;;;;;8.90;4.75;;;11.80;99.90;;;11.79;100.00;98947.25;5198096;28;20053;-48
2023/10/19 00:05:29;;;;;;;8.45;4.25;;;11.80;99.90;;;11.80;100.00;98943.78;5194788;28;20509;-50
2023/10/19 00:08:05;;;;;;;9.45;4.10;;;11.80;99.90;;;11.83;100.00;98949.06;5199525;28;20081;-48
2023/10/19 00:10:36;;;;;;;9.98;5.60;;;11.90;99.90;;;11.83;100.00;98941.22;5210600;28;20104;-48
2023/10/19 00:13:11;;;;;;;11.13;5.60;;;11.90;99.90;;;11.85;100.00;98947.31;5203477;28;20102;-48
2023/10/19 00:15:48;;;;;;;8.05;4.22;;;11.90;99.90;;;11.87;100.00;98945.59;5206677;28;20107;-48
2023/10/19 00:18:22;;;;;;;8.52;4.05;;;11.90;99.90;;;11.90;100.00;98941.22;5192234;28;20084;-50
2023/10/19 00:20:59;;;;;;;8.95;4.47;;;11.90;99.90;;;11.93;100.00;98935.09;5198923;28;20053;-48
2023/10/19 00:23:31;;;;;;;8.43;4.65;;;11.90;99.90;;;11.95;100.00;98933.38;5199934;28;20054;-48
2023/10/19 00:26:08;;;;;;;8.55;4.63;;;12.00;99.90;;;11.94;100.00;98918.59;5194165;28;20144;-48
2023/10/19 00:28:40;;;;;;;9.35;4.28;;;12.00;99.90;;;11.94;100.00;98918.59;5197446;28;20132;-48
2023/10/19 00:31:13;;;;;;;9.35;4.90;;;12.00;99.90;;;11.97;100.00;98922.94;5200925;28;20236;-48
2023/10/19 00:33:51;;;;;;;8.70;4.68;;;12.00;99.90;;;11.97;100.00;98928.16;5194375;28;20057;-50
2023/10/19 00:36:26;;;;;;;9.95;4.40;;;12.00;99.90;;;11.97;100.00;98939.47;5190789;28;20065;-50
2023/10/19 00:39:00;;;;;;;7.30;4.32;;;12.00;99.90;;;12.00;100.00;98925.53;5196021;28;20080;-48
2023/10/19 00:41:34;;;;;;;;;;;12.00;99.90;;;12.01;100.00;98927.31;5198734;28;20056;-48
2023/10/19 00:47:00;;;;;;;8.40;4.38;;;12.10;99.90;;;12.06;100.00;98931.66;5193464;28;20459;-48
2023/10/19 00:49:35;;;;;;;8.10;3.92;;;12.10;99.90;;;12.10;100.00;98935.13;5196996;28;20060;-49
2023/10/19 00:52:12;;;;;;;8.88;4.60;;;12.10;99.90;;;12.14;100.00;98934.25;5199671;28;20057;-49
2023/10/19 00:54:51;;;;;;;8.68;4.75;;;12.10;99.90;;;12.15;100.00;98934.25;5206876;28;20046;-50
2023/10/19 00:57:33;;;;;;;10.85;4.70;;;12.10;99.90;;;12.16;100.00;98928.13;5200138;28;20038;-50
2023/10/19 01:00:12;;;;;;;9.95;4.93;;;12.20;99.90;;;12.18;100.00;98930.75;5213088;28;20050;-48
2023/10/19 01:02:45;;;;;;;6.88;3.72;;;12.20;99.90;;;12.18;100.00;98930.75;5197675;28;20049;-50
2023/10/19 01:05:22;;;;;;;7.40;3.63;;;12.20;99.90;;;12.20;100.00;98940.34;5189967;28;20350;-48
2023/10/19 01:07:57;;;;;;;7.80;4.30;;;12.20;99.90;;;12.23;100.00;98929.88;5199373;28;20053;-50
2023/10/19 01:10:31;;;;;;;;;;;12.20;99.90;;;12.27;100.00;98929.88;5192526;28;20045;-48
2023/10/19 01:13:05;;;;;;;6.47;3.30;;;12.30;99.90;;;12.29;100.00;98931.59;5188209;28;19928;-48
2023/10/19 01:15:38;;;;;;;8.27;4.13;;;12.30;99.90;;;12.33;100.00;98935.97;5193325;28;20077;-49
2023/10/19 01:18:14;;;;;;;8.27;4.55;;;12.30;99.90;;;12.39;100.00;98929.88;5200652;28;20124;-49
2023/10/19 01:20:51;;;;;;;8.65;4.43;;;12.40;99.90;;;12.41;100.00;98913.28;5201817;28;20041;-48
2023/10/19 01:23:28;;;;;;;8.57;4.80;;;12.40;99.90;;;12.43;100.00;98922.00;5197386;28;20045;-50
2023/10/19 01:26:05;;;;;;;8.90;4.32;;;12.40;99.90;;;12.44;100.00;98909.78;5192972;28;20050;-50
2023/10/19 01:28:47;;;;;;;8.70;4.38;;;12.40;99.90;;;12.48;100.00;98919.38;5193181;28;20054;-48
2023/10/19 01:31:30;;;;;;;9.35;5.00;;;12.50;99.90;;;12.49;100.00;98905.44;5209635;28;20045;-50
2023/10/19 01:34:07;;;;;;;8.43;4.20;;;12.50;99.90;;;12.53;100.00;98919.38;5207606;28;20042;-50
2023/10/19 01:36:42;;;;;;;7.63;4.43;;;12.50;99.90;;;12.56;100.00;98912.38;5194138;28;20060;-49
2023/10/19 01:39:15;;;;;;;9.70;4.65;;;12.60;99.90;;;12.59;100.00;98917.63;5204015;28;20053;-49
2023/10/19 01:41:50;;;;;;;6.93;3.83;;;12.60;99.90;;;12.63;100.00;98914.09;5199641;28;20049;-48
2023/10/19 01:44:21;;;;;;;7.60;3.75;;;12.60;99.90;;;12.66;100.00;98910.63;5197009;28;20523;-49
2023/10/19 01:46:55;;;;;;;7.15;3.47;;;12.60;99.90;;;12.68;100.00;98921.94;5196416;28;20532;-49
2023/10/19 01:49:28;;;;;;;8.35;4.38;;;12.60;99.90;;;12.71;100.00;98916.66;5195367;28;20061;-48
2023/10/19 01:52:00;;;;;;;7.18;3.60;;;12.70;99.90;;;12.72;100.00;98924.53;5200174;28;20584;-49
2023/10/19 01:54:37;;;;;;;9.85;4.43;;;12.70;99.90;;;12.74;100.00;98912.31;5203883;28;20103;-49
2023/10/19 01:57:12;;;;;;;8.68;4.47;;;12.70;99.90;;;12.76;100.00;98899.22;5205899;28;20141;-49
2023/10/19 01:59:44;;;;;;;8.35;4.38;;;12.70;99.90;;;12.77;100.00;98904.44;5196862;28;20053;-49
2023/10/19 02:02:16;;;;;;;9.15;4.85;;;12.70;99.90;;;12.78;100.00;98897.50;5206798;28;20076;-48
2023/10/19 02:04:51;;;;;;;11.30;5.28;;;12.70;99.90;;;12.79;100.00;98890.53;5201196;28;20057;-49
2023/10/19 02:07:24;;;;;;;7.82;4.68;;;12.80;99.90;;;12.80;100.00;98894.88;5200878;28;20042;-48
2023/10/19 02:09:56;;;;;;;8.43;4.40;;;12.80;99.90;;;12.81;100.00;98886.16;5198939;28;20053;-50
2023/10/19 02:12:29;;;;;;;9.25;4.70;;;12.80;99.90;;;12.81;100.00;98884.41;5194219;28;20520;-49
2023/10/19 02:15:00;;;;;;;9.40;4.20;;;12.80;99.90;;;12.82;100.00;98882.66;5205300;28;20517;-49
2023/10/19 02:17:33;;;;;;;8.95;5.00;;;12.80;99.90;;;12.82;100.00;98880.91;5199698;28;20528;-51
2023/10/19 02:20:12;;;;;;;6.95;3.92;;;12.80;99.90;;;12.83;100.00;98882.66;5207951;28;20103;-50
2023/10/19 02:22:44;;;;;;;5.72;3.15;;;12.80;99.90;;;12.84;100.00;98875.66;5199976;28;20057;-48
2023/10/19 02:25:17;;;;;;;7.53;3.72;;;12.80;99.90;;;12.85;100.00;98872.19;5207727;28;20053;-48
2023/10/19 02:27:50;;;;;;;7.82;3.78;;;12.80;99.90;;;12.86;100.00;98868.72;5207405;28;20528;-49
2023/10/19 02:30:24;;;;;;;6.72;3.47;;;12.80;99.90;;;12.87;100.00;98875.66;5199495;28;20567;-48
2023/10/19 02:32:57;;;;;;;6.18;3.28;;;12.80;99.90;;;12.88;100.00;98886.09;5199834;28;20053;-49
2023/10/19 02:35:28;;;;;;;5.75;3.28;;;12.90;99.90;;;12.89;100.00;98879.13;5203943;28;20049;-48
2023/10/19 02:38:01;;;;;;;6.60;3.50;;;12.80;99.90;;;12.89;100.00;98886.97;5206497;28;20398;-49
2023/10/19 02:40:36;;;;;;;6.50;3.35;;;12.90;99.90;;;12.88;100.00;98882.63;5195135;28;20501;-49
2023/10/19 02:43:09;;;;;;;7.95;3.55;;;12.90;99.90;;;12.88;100.00;98873.03;5196788;28;20536;-49
2023/10/19 02:45:42;;;;;;;6.28;3.72;;;12.90;99.90;;;12.88;100.00;98866.94;5210441;28;20508;-49
2023/10/19 02:48:13;;;;;;;6.78;3.65;;;12.90;99.90;;;12.88;100.00;98864.31;5195745;28;20379;-50
2023/10/19 02:50:46;;;;;;;6.15;3.63;;;12.90;99.90;;;12.89;100.00;98858.22;5188638;28;20046;-49
2023/10/19 02:53:19;;;;;;;5.63;3.10;;;12.90;99.90;;;12.91;100.00;98864.28;5198292;28;20045;-49
2023/10/19 02:55:52;;;;;;;5.43;3.28;;;12.90;99.90;;;12.91;100.00;98864.28;5199500;28;20057;-50
2023/10/19 02:58:24;;;;;;;5.32;3.30;;;12.90;99.90;;;12.93;100.00;98862.56;5218097;28;20428;-49
2023/10/19 03:00:57;;;;;;;6.88;2.85;;;12.90;99.90;;;12.95;100.00;98863.41;5204893;28;20518;-48
2023/10/19 03:03:30;;;;;;;5.57;3.22;;;12.90;99.90;;;12.97;100.00;98861.66;5199125;28;20107;-51
2023/10/19 03:06:07;;;;;;;6.72;3.80;;;12.90;99.90;;;12.97;100.00;98852.06;5198312;28;20050;-48
2023/10/19 03:08:38;;;;;;;7.75;3.40;;;12.90;99.90;;;13.00;100.00;98851.19;5195408;28;20050;-49
2023/10/19 03:11:13;;;;;;;4.30;2.88;;;13.00;99.90;;;13.02;100.00;98859.88;5207971;28;20053;-50
2023/10/19 03:13:49;;;;;;;;;;;13.00;99.90;;;13.01;100.00;98863.38;5207922;28;20064;-50
2023/10/19 03:16:23;;;;;;;5.75;3.55;;;13.00;99.90;;;13.00;100.00;98854.66;5200833;28;19967;-49
2023/10/19 03:18:55;;;;;;;7.57;4.63;;;13.00;99.90;;;12.98;100.00;98842.50;5201701;28;20065;-49
2023/10/19 03:21:27;;;;;;;6.57;4.32;;;13.00;99.90;;;12.95;100.00;98843.34;5197675;28;20097;-48
2023/10/19 03:24:12;;;;;;;8.55;4.82;;;12.90;99.90;;;12.91;100.00;98840.75;5200730;28;20060;-49
2023/10/19 03:26:48;;;;;;;8.38;4.30;;;12.90;99.90;;;12.89;100.00;98826.84;5212702;28;20085;-49
2023/10/19 03:29:26;;;;;;;4.93;3.50;;;12.90;99.90;;;12.89;100.00;98824.22;5207398;28;20099;-49
2023/10/19 03:31:59;;;;;;;8.00;4.93;;;12.90;99.90;;;12.87;100.00;98810.31;5205067;28;20046;-50
2023/10/19 03:34:33;;;;;;;9.05;5.00;;;12.90;99.90;;;12.84;100.00;98813.78;5196928;28;20527;-48
2023/10/19 03:37:07;;;;;;;8.23;4.43;;;12.80;99.90;;;12.82;100.00;98809.44;5200763;28;20191;-48
2023/10/19 03:39:40;;;;;;;6.85;3.58;;;12.80;99.90;;;12.82;100.00;98814.69;5195570;28;20412;-49
2023/10/19 03:42:14;;;;;;;7.00;3.88;;;12.80;99.90;;;12.81;100.00;98812.94;5206352;28;20393;-49
2023/10/19 03:44:53;;;;;;;6.85;3.58;;;12.80;99.90;;;12.80;100.00;98811.22;5196770;28;20559;-48
2023/10/19 03:47:31;;;;;;;7.18;3.55;;;12.80;99.90;;;12.79;100.00;98814.72;5195161;28;20539;-48
2023/10/19 03:50:06;;;;;;;8.23;3.90;;;12.80;99.90;;;12.77;100.00;98812.09;5195808;28;20092;-48
2023/10/19 03:52:39;;;;;;;5.78;3.22;;;12.80;99.90;;;12.80;100.00;98808.59;5196492;28;20432;-48
2023/10/19 03:55:16;;;;;;;6.13;3.33;;;12.80;99.90;;;12.81;100.00;98813.81;5206845;28;20064;-48
2023/10/19 03:57:54;;;;;;;9.07;3.80;;;12.80;99.90;;;12.83;100.00;98811.19;5201026;28;20073;-48
2023/10/19 04:00:28;;;;;;;7.05;3.83;;;12.80;99.90;;;12.84;100.00;98805.94;5207022;28;20191;-48
2023/10/19 04:03:00;;;;;;;8.38;3.58;;;12.80;99.90;;;12.87;100.00;98792.88;5200848;28;20053;-50
2023/10/19 04:05:38;;;;;;;7.20;3.70;;;12.80;99.90;;;12.88;100.00;98788.50;5193243;28;20046;-49
2023/10/19 04:08:14;;;;;;;6.85;4.03;;;12.90;99.90;;;12.90;100.00;98799.81;5199849;28;20512;-48
2023/10/19 04:10:47;;;;;;;8.50;3.75;;;12.90;99.90;;;12.92;100.00;98790.22;5200266;28;20520;-49
2023/10/19 04:13:21;;;;;;;6.80;3.55;;;12.90;99.90;;;12.93;100.00;98792.81;5200469;28;20081;-49
2023/10/19 04:15:54;;;;;;;7.38;3.30;;;12.90;99.90;;;12.94;100.00;98789.31;5193537;28;20049;-48
2023/10/19 04:18:29;;;;;;;6.32;3.55;;;12.90;99.90;;;12.96;100.00;98791.94;5206686;28;20046;-48
2023/10/19 04:21:05;;;;;;;6.60;3.15;;;12.90;99.90;;;12.95;100.00;98784.97;5197653;28;20096;-49
2023/10/19 04:23:37;;;;;;;7.03;3.58;;;12.90;99.90;;;12.94;100.00;98791.06;5207494;28;20431;-49
2023/10/19 04:26:11;;;;;;;5.72;3.80;;;12.90;99.90;;;12.96;100.00;98794.53;5199890;28;20085;-49
2023/10/19 04:28:49;;;;;;;5.30;2.78;;;12.90;99.90;;;12.97;100.00;98793.66;5200685;28;20054;-50
2023/10/19 04:31:23;;;;;;;6.07;3.22;;;12.90;99.90;;;12.97;100.00;98788.44;5206804;28;20111;-48
2023/10/19 04:33:56;;;;;;;5.25;3.13;;;12.90;99.90;;;12.99;100.00;98791.94;5208008;28;20054;-48
2023/10/19 04:36:28;;;;;;;4.78;2.60;;;12.90;99.90;;;13.02;100.00;98792.75;5196114;28;20049;-48
2023/10/19 04:39:00;;;;;;;6.30;3.10;;;13.00;99.90;;;13.05;100.00;98791.88;5199691;28;20049;-48
2023/10/19 04:41:33;;;;;;;5.50;2.97;;;13.00;99.90;;;13.07;100.00;98781.41;5204775;28;20523;-49
2023/10/19 04:44:08;;;;;;;5.65;3.00;;;13.00;99.90;;;13.08;100.00;98776.16;5203048;28;20049;-49
2023/10/19 04:46:40;;;;;;;8.07;4.15;;;13.00;99.90;;;13.11;100.00;98786.63;5197376;28;20049;-48
2023/10/19 04:49:12;;;;;;;5.88;3.15;;;13.10;99.90;;;13.13;100.00;98781.34;5195391;28;20054;-50
2023/10/19 04:51:45;;;;;;;5.25;2.58;;;13.10;99.90;;;13.14;100.00;98776.09;5195582;28;20046;-49
2023/10/19 04:54:17;;;;;;;4.18;2.50;;;13.10;99.90;;;13.15;100.00;98772.59;5206419;28;20061;-49
2023/10/19 04:56:50;;;;;;;6.07;3.08;;;13.10;99.90;;;13.18;100.00;98783.06;5205289;28;20060;-49
2023/10/19 04:59:24;;;;;;;4.93;2.90;;;13.10;99.90;;;13.20;100.00;98785.66;5204090;28;20144;-48
2023/10/19 05:01:56;;;;;;;5.13;2.50;;;13.10;99.90;;;13.18;100.00;98788.28;5198831;28;20053;-48
2023/10/19 05:04:29;;;;;;;6.80;3.20;;;13.10;99.90;;;13.19;100.00;98795.25;5205082;28;20516;-49
2023/10/19 05:07:03;;;;;;;6.35;3.17;;;13.10;99.90;;;13.19;100.00;98787.41;5203010;28;20084;-49
2023/10/19 05:09:38;;;;;;;6.22;4.22;;;13.10;99.90;;;13.18;100.00;98785.69;5196483;28;20508;-49
2023/10/19 05:12:11;;;;;;;6.63;3.03;;;13.10;99.90;;;13.18;100.00;98782.19;5205600;28;20076;-51
2023/10/19 05:14:45;;;;;;;6.18;3.00;;;13.10;99.90;;;13.19;100.00;98791.78;5197232;28;20108;-49
2023/10/19 05:17:21;;;;;;;4.90;2.97;;;13.10;99.90;;;13.18;100.00;98793.53;5206437;28;20401;-50
2023/10/19 05:19:53;;;;;;;5.53;2.95;;;13.10;99.90;;;13.19;100.00;98792.66;5198401;28;20053;-49
2023/10/19 05:22:29;;;;;;;11.23;4.05;;;13.10;99.90;;;13.15;100.00;98783.06;5200834;28;20432;-49
2023/10/19 05:25:02;;;;;;;7.78;3.75;;;13.10;99.90;;;13.15;100.00;98783.06;5203106;28;20057;-48
2023/10/19 05:27:34;;;;;;;8.18;4.10;;;13.10;99.90;;;13.14;100.00;98781.34;5192614;28;20108;-50
2023/10/19 05:30:11;;;;;;;5.82;3.10;;;13.10;99.90;;;13.16;100.00;98782.19;5200006;28;20123;-49
2023/10/19 05:32:46;;;;;;;8.80;4.03;;;13.10;99.90;;;13.16;100.00;98779.56;5195175;28;20041;-48
2023/10/19 05:35:22;;;;;;;5.82;2.92;;;13.10;99.90;;;13.18;100.00;98777.84;5166072;28;20057;-49
2023/10/19 05:37:56;;;;;;;7.28;3.60;;;13.10;99.90;;;13.18;100.00;98782.19;5195481;28;20053;-49
2023/10/19 05:40:29;;;;;;;5.35;3.03;;;13.10;99.90;;;13.18;100.00;98783.06;5193606;28;20408;-49
2023/10/19 05:43:02;;;;;;;5.45;2.92;;;13.10;99.90;;;13.19;100.00;98784.78;5202577;28;20127;-49
2023/10/19 05:45:36;;;;;;;8.32;3.88;;;13.10;99.90;;;13.20;100.00;98783.94;5199398;28;20528;-49
2023/10/19 05:48:09;;;;;;;6.40;3.28;;;13.10;99.90;;;13.22;100.00;98779.56;5203162;28;20045;-48
2023/10/19 05:50:42;;;;;;;8.00;3.90;;;13.20;99.90;;;13.21;100.00;98777.81;5198249;28;20444;-49
2023/10/19 05:53:18;;;;;;;8.13;3.70;;;13.20;99.90;;;13.22;100.00;98784.78;5202600;28;20065;-48
2023/10/19 05:55:50;;;;;;;9.40;4.38;;;13.20;99.90;;;13.23;100.00;98791.75;5205428;28;20049;-48
2023/10/19 05:58:22;;;;;;;7.50;3.58;;;13.20;99.90;;;13.23;100.00;98797.00;5197463;28;20045;-48
2023/10/19 06:00:59;;;;;;;8.15;4.53;;;13.20;99.90;;;13.24;100.00;98793.53;5209819;28;20061;-49
2023/10/19 06:03:32;;;;;;;10.52;4.38;;;13.20;99.90;;;13.26;100.00;98803.97;5205137;28;20401;-50
2023/10/19 06:06:04;;;;;;;11.57;5.10;;;13.20;99.90;;;13.27;100.00;98796.09;5199620;28;20053;-48
2023/10/19 06:08:41;;;;;;;10.75;4.93;;;13.20;99.90;;;13.30;100.00;98797.81;5203066;28;20056;-48
2023/10/19 06:11:14;;;;;;;8.02;4.03;;;13.20;99.90;;;13.30;100.00;98798.72;5205241;28;20056;-48
2023/10/19 06:13:47;;;;;;;9.55;4.35;;;13.30;99.90;;;13.33;100.00;98807.41;5203366;28;20048;-48
2023/10/19 06:16:21;;;;;;;7.47;3.92;;;13.20;99.90;;;13.36;100.00;98807.38;5203963;28;20138;-49
2023/10/19 06:18:53;;;;;;;12.85;5.13;;;13.30;99.90;;;13.37;100.00;98809.13;5123714;28;20064;-48
2023/10/19 06:21:26;;;;;;;9.57;4.82;;;13.30;99.90;;;13.39;100.00;98817.81;5201276;28;20053;-48
2023/10/19 06:23:59;;;;;;;9.40;4.40;;;13.30;99.90;;;13.43;100.00;98815.19;5204352;28;20053;-49
2023/10/19 06:26:31;;;;;;;12.35;5.22;;;13.40;99.90;;;13.45;100.00;98812.53;5207699;28;20041;-48
2023/10/19 06:29:03;;;;;;;12.90;5.35;;;13.40;99.90;;;13.46;100.00;98814.28;5202211;28;20045;-50
2023/10/19 06:31:38;;;;;;;10.45;4.70;;;13.40;99.90;;;13.49;100.00;98812.47;5197791;28;20049;-48
2023/10/19 06:34:10;;;;;;;10.25;4.60;;;13.40;99.90;;;13.51;100.00;98812.50;5200871;28;20123;-48
2023/10/19 06:36:46;;;;;;;8.38;3.72;;;13.50;99.90;;;13.52;100.00;98815.09;5203825;28;20491;-49
2023/10/19 06:39:20;;;;;;;10.63;5.25;;;13.50;99.90;;;13.55;100.00;98808.94;5200916;28;20512;-48
2023/10/19 06:41:53;;;;;;;9.48;4.75;;;13.50;99.90;;;13.58;100.00;98819.41;5197487;28;20736;-48
2023/10/19 06:44:25;;;;;;;7.65;4.18;;;13.50;99.90;;;13.60;100.00;98816.78;5198981;28;20057;-48
2023/10/19 06:46:59;;;;;;;10.52;5.07;;;13.50;99.90;;;13.62;100.00;98821.09;5202956;28;20046;-50
2023/10/19 06:49:31;;;;;;;9.40;4.47;;;13.50;99.90;;;13.64;100.00;98814.13;5202237;28;20107;-49
2023/10/19 06:52:05;;;;;;;9.38;4.63;;;13.60;99.90;;;13.69;100.00;98822.81;5200425;28;20049;-48
2023/10/19 06:54:39;;;;;;;7.20;3.65;;;13.60;99.90;;;13.71;100.00;98815.78;5200797;28;20068;-48
2023/10/19 06:57:12;;;;;;;5.50;3.10;;;13.60;99.90;;;13.73;100.00;98821.00;5197330;28;20436;-49
2023/10/19 06:59:44;;;;;;;8.25;3.58;;;13.60;99.90;;;13.76;100.00;98818.38;5198695;28;20397;-48
2023/10/19 07:02:20;;;;;;;6.80;3.67;;;13.70;99.90;;;13.78;100.00;98817.47;5199913;28;20440;-48
2023/10/19 07:04:55;;;;;;;8.25;3.13;;;13.70;99.90;;;13.80;100.00;98820.06;5203361;28;20135;-48
2023/10/19 07:07:28;;;;;;;8.75;4.35;;;13.70;99.90;;;13.84;100.00;98827.88;5201169;28;20429;-49
2023/10/19 07:10:03;;;;;;;8.00;4.03;;;13.70;99.90;;;13.87;100.00;98826.97;5195454;28;20049;-48
2023/10/19 07:12:39;;;;;;;7.75;3.67;;;13.80;99.90;;;13.91;100.00;98825.22;5204926;28;20045;-49
2023/10/19 07:15:13;;;;;;;8.40;4.05;;;13.80;99.90;;;13.93;100.00;98837.41;5201272;28;20052;-48
2023/10/19 07:17:48;;;;;;;6.40;3.30;;;13.80;99.90;;;13.98;100.00;98839.97;5198505;28;20397;-49
2023/10/19 07:20:28;;;;;;;6.03;3.13;;;13.90;99.90;;;14.00;100.00;98831.22;5200204;28;20528;-48
2023/10/19 07:23:06;;;;;;;7.22;3.30;;;13.90;99.90;;;14.05;100.00;98836.41;5204815;28;20045;-47
2023/10/19 07:25:42;;;;;;;7.60;3.20;;;13.90;99.90;;;14.05;100.00;98832.03;5201338;28;20049;-48
2023/10/19 07:28:16;;;;;;;7.72;3.35;;;13.90;99.90;;;14.07;100.00;98826.78;5207092;28;20458;-47
2023/10/19 07:30:52;;;;;;;7.97;3.63;;;14.00;99.90;;;14.09;100.00;98827.66;5195975;28;20056;-47
2023/10/19 07:33:26;;;;;;;7.90;3.90;;;14.00;99.90;;;14.09;100.00;98838.13;5203499;28;20141;-49
2023/10/19 07:35:59;;;;;;;11.32;3.63;;;14.00;99.90;;;14.12;100.00;98843.31;5207603;28;20377;-48
2023/10/19 07:38:34;;;;;;;7.60;3.88;;;14.00;99.90;;;14.13;100.00;98845.91;5203320;28;20135;-47
2023/10/19 07:41:07;;;;;;;7.18;3.58;;;14.10;99.90;;;14.14;100.00;98846.78;5198604;28;20507;-47
2023/10/19 07:43:39;;;;;;;7.88;3.78;;;14.10;99.90;;;14.17;100.00;98856.38;5206704;28;20050;-48
2023/10/19 07:46:12;;;;;;;7.53;3.13;;;14.10;99.90;;;14.20;100.00;98848.47;5204813;28;20049;-48
2023/10/19 07:48:46;;;;;;;9.60;4.70;;;14.10;99.90;;;14.23;100.00;98849.31;5196250;28;20401;-47
2023/10/19 07:51:18;;;;;;;6.90;3.50;;;14.10;99.90;;;14.25;100.00;98847.53;5198837;28;20056;-49
2023/10/19 07:53:51;;;;;;;7.75;4.03;;;14.10;99.90;;;14.28;100.00;98846.63;5195279;28;20076;-47
2023/10/19 07:56:24;;;;;;;7.78;3.75;;;14.10;99.90;;;14.32;100.00;98851.81;5204580;28;20476;-47
2023/10/19 07:59:00;;;;;;;8.07;4.50;;;14.20;99.90;;;14.35;100.00;98848.31;5201403;28;20528;-47
2023/10/19 08:01:32;;;;;;;6.88;3.35;;;14.20;99.90;;;14.44;100.00;98831.63;5195650;28;20050;-48
2023/10/19 08:04:06;;;;;;;6.03;3.00;;;14.30;99.90;;;14.56;100.00;98834.13;5203134;28;20059;-48
2023/10/19 08:06:42;;;;;;;9.57;3.63;;;14.40;99.90;;;14.60;100.00;98830.56;5197287;28;20055;-48
2023/10/19 08:09:22;;;;;;;7.28;3.00;;;14.40;99.90;;;14.60;100.00;98826.19;5197024;28;20099;-48
2023/10/19 08:11:56;;;;;;;6.03;3.33;;;14.50;99.90;;;14.62;100.00;98821.81;5202905;28;20049;-48
2023/10/19 08:14:30;;;;;;;5.70;3.00;;;14.50;99.90;;;14.64;100.00;98821.78;5203624;28;20045;-48
2023/10/19 08:17:03;;;;;;;5.75;2.85;;;14.50;99.90;;;14.72;100.00;98824.28;5203982;28;20045;-48
2023/10/19 08:19:37;;;;;;;4.80;2.63;;;14.60;99.90;;;14.80;100.00;98823.31;5201671;28;20135;-48
2023/10/19 08:22:09;;;;;;;4.50;2.92;;;14.60;99.90;;;14.91;100.00;98820.53;5194022;28;20050;-47
2023/10/19 08:24:43;;;;;;;4.80;2.50;;;14.70;99.90;;;15.03;100.00;98815.13;5200915;28;20050;-47
2023/10/19 08:27:17;;;;;;;5.90;2.50;;;14.80;99.90;;;15.16;100.00;98818.44;5203490;28;20045;-48
2023/10/19 08:29:50;;;;;;;4.57;2.42;;;14.90;99.90;;;15.31;100.00;98814.69;5196998;28;20047;-48
2023/10/19 08:32:22;;;;;;;3.28;2.22;;;15.10;99.90;;;15.53;100.00;98810.84;5194818;28;20439;-48
2023/10/19 08:34:56;;;;;;;21.73;3.22;;;15.20;99.90;;;15.77;100.00;98808.72;5195327;28;20054;-47
2023/10/19 08:37:29;;;;;;;5.72;2.72;;;15.40;99.90;;;15.99;100.00;98810.94;5192547;28;20077;-48
2023/10/19 08:40:04;;;;;;;5.70;2.17;;;15.60;99.90;;;16.17;100.00;98819.34;5197901;28;20042;-49
2023/10/19 08:42:36;;;;;;;4.55;2.17;;;15.80;99.90;;;16.27;100.00;98820.91;5196027;28;20045;-48
2023/10/19 08:45:12;;;;;;;3.80;1.95;;;15.90;99.90;;;16.45;100.00;98825.81;5194586;28;20048;-48
2023/10/19 08:47:53;;;;;;;5.18;2.22;;;16.10;99.90;;;16.73;100.00;98810.34;5196356;28;20140;-48
2023/10/19 08:50:29;;;;;;;5.07;2.33;;;16.30;99.90;;;17.00;100.00;98818.53;5194865;28;20240;-47
2023/10/19 08:53:08;;;;;;;3.38;2.03;;;16.60;99.90;;;17.25;100.00;98824.09;5197072;28;20073;-47
2023/10/19 08:55:40;;;;;;;2.17;1.70;;;16.80;99.90;;;17.58;100.00;98823.28;5196738;28;20053;-47
2023/10/19 08:58:14;;;;;;;3.42;1.63;;;17.10;99.90;;;17.88;100.00;98812.91;5196537;28;20044;-47
2023/10/19 09:00:53;;;;;;;3.75;1.60;;;17.40;99.90;;;18.20;100.00;98813.84;5201222;28;20053;-47
2023/10/19 09:03:26;;;;;;;4.40;1.67;;;17.70;99.90;;;18.44;100.00;98816.63;5189448;28;20517;-48
2023/10/19 09:06:02;;;;;;;4.28;1.48;;;18.00;99.90;;;18.67;100.00;98813.38;5196107;28;20050;-48
2023/10/19 09:08:40;;;;;;;4.60;1.63;;;18.20;99.90;;;18.91;100.00;98800.34;5197955;28;20062;-47
2023/10/19 09:11:13;;;;;;;1.83;1.20;;;18.40;99.90;;;19.16;100.00;98796.00;5197673;28;20049;-48
2023/10/19 09:13:47;;;;;;;2.35;0.95;;;18.70;99.90;;;19.41;100.00;98789.94;5190295;28;20064;-47
2023/10/19 09:16:21;;;;;;;4.28;1.40;;;18.90;99.90;;;19.52;100.00;98779.91;5199984;28;20045;-47
2023/10/19 09:18:58;;;;;;;2.92;1.23;;;19.00;99.90;;;19.41;100.00;98776.75;5198541;28;20112;-48
2023/10/19 09:21:33;;;;;;;3.53;1.27;;;19.00;99.90;;;19.18;100.00;98788.94;5195495;28;20053;-47
2023/10/19 09:24:06;;;;;;;3.47;1.30;;;18.90;99.90;;;19.00;100.00;98786.88;5192061;28;20135;-47
2023/10/19 09:26:38;;;;;;;2.45;1.20;;;18.70;99.90;;;18.88;100.00;98789.88;5190805;28;20416;-47
2023/10/19 09:29:19;;;;;;;2.92;1.30;;;18.60;99.90;;;18.91;100.00;98785.38;5135840;28;20042;-46
2023/10/19 09:31:52;;;;;;;6.30;1.52;;;18.60;99.90;;;19.11;100.00;98782.13;5196439;28;20045;-46
2023/10/19 09:34:31;;;;;;;4.40;1.40;;;18.70;99.90;;;19.46;100.00;98775.69;5200668;28;20462;-46
2023/10/19 09:37:06;;;;;;;2.45;1.23;;;18.90;99.90;;;19.73;100.00;98776.56;5193690;28;20065;-46
2023/10/19 09:39:39;;;;;;;3.63;1.52;;;19.10;99.90;;;19.96;100.00;98769.63;5194088;28;20468;-46
2023/10/19 09:42:16;;;;;;;3.47;1.27;;;19.30;99.90;;;20.20;100.00;98759.91;5191344;28;20436;-47
2023/10/19 09:44:56;;;;;;;3.22;1.30;;;19.50;99.90;;;20.33;100.00;98759.41;5197435;28;20041;-46
2023/10/19 09:47:35;;;;;;;3.67;1.30;;;19.70;99.90;;;20.37;100.00;98754.03;5202025;28;20045;-47
2023/10/19 09:50:11;;;;;;;4.28;1.27;;;19.80;99.90;;;20.38;100.00;98751.31;5195110;28;20068;-47
2023/10/19 09:52:45;;;;;;;3.15;1.30;;;19.80;99.90;;;20.46;100.00;98762.50;5189840;28;20046;-47
2023/10/19 09:55:26;;;;;;;3.78;1.30;;;19.90;99.90;;;20.59;100.00;98763.75;5189532;28;20046;-46
2023/10/19 09:58:08;;;;;;;4.47;1.40;;;20.00;99.90;;;20.76;100.00;98760.47;5198485;28;20073;-47
2023/10/19 10:00:44;;;;;;;2.65;1.13;;;20.10;99.90;;;20.94;100.00;98769.50;5197241;28;20061;-46
2023/10/19 10:03:51;;;;;;;3.30;1.20;;;20.30;99.90;;;21.02;100.00;98766.53;5188802;28;20050;-47
2023/10/19 10:06:30;;;;;;;4.15;1.05;;;20.40;99.90;;;21.08;100.00;98771.59;5195496;28;20048;-46
2023/10/19 10:09:11;;;;;;;2.65;1.08;;;20.50;99.90;;;21.18;100.00;98772.94;5192264;28;20389;-46
2023/10/19 10:11:45;;;;;;;;;;;20.60;99.90;;;21.30;100.00;98772.47;5194182;28;20141;-46
2023/10/19 10:14:24;;;;;;;;;;;20.70;99.90;;;21.53;100.00;98773.31;5195838;28;20332;-47
2023/10/19 10:17:02;;;;;;;3.67;1.30;;;20.80;99.90;;;21.60;100.00;98769.50;5190601;28;19924;-47
2023/10/19 10:19:34;;;;;;;2.83;1.23;;;21.00;99.90;;;21.67;100.00;98760.34;5190634;28;20046;-47
2023/10/19 10:22:14;;;;;;;2.75;1.10;;;21.00;99.90;;;21.82;100.00;98753.53;5210791;28;20049;-47
2023/10/19 10:24:49;;;;;;;3.17;1.13;;;21.10;99.90;;;22.00;100.00;98750.06;5198490;28;20594;-47
2023/10/19 10:27:21;;;;;;;2.65;1.00;;;21.30;99.90;;;22.16;100.00;98760.88;5203991;28;20034;-47
2023/10/19 10:29:59;;;;;;;2.08;0.93;;;21.40;99.90;;;22.31;100.00;98762.88;5206935;28;20512;-47
2023/10/19 10:32:47;;;;;;;3.90;1.20;;;21.60;99.90;;;22.34;100.00;98761.84;5194612;28;20053;-48
2023/10/19 10:35:56;;;;;;;4.85;1.20;;;21.60;99.90;;;22.34;100.00;98754.75;5197898;28;20080;-47
2023/10/19 10:38:36;;;;;;;3.80;1.08;;;21.70;99.90;;;22.20;100.00;98751.88;5154436;28;20052;-48
2023/10/19 10:41:10;;;;;;;4.57;1.40;;;21.60;99.90;;;21.92;100.00;98744.25;5187475;28;20100;-48
2023/10/19 10:43:53;;;;;;;;;;;21.50;99.90;;;21.56;100.00;98758.13;5187414;28;20072;-48
2023/10/19 10:46:28;;;;;;;4.80;1.45;;;21.20;99.90;;;21.20;100.00;98744.63;5197282;28;19937;-48